createdAt,value
2018-09-30T09:06:38.356Z,98.00
2018-09-30T09:09:09.331Z,97.90
2018-09-30T09:11:37.781Z,98.20
2018-09-30T09:14:06.501Z,98.40
2018-09-30T09:16:35.304Z,98.00
2018-09-30T09:19:03.707Z,97.80
2018-09-30T09:21:32.106Z,97.90
2018-09-30T09:24:00.502Z,97.80
2018-09-30T09:26:29.588Z,97.70
2018-09-30T09:28:57.994Z,97.40
2018-09-30T09:31:26.585Z,97.50
2018-09-30T09:33:55.074Z,97.60
2018-09-30T09:36:24.384Z,97.70
2018-09-30T09:38:53.198Z,97.50
2018-09-30T09:41:21.741Z,97.70
2018-09-30T09:43:50.979Z,97.50
2018-09-30T09:46:19.622Z,97.20
2018-09-30T09:48:48.687Z,97.30
2018-09-30T09:51:17.337Z,97.10
2018-09-30T09:53:46.082Z,97.30
2018-09-30T09:56:14.817Z,97.30
2018-09-30T09:58:43.682Z,97.20
2018-09-30T10:01:12.380Z,97.30
2018-09-30T10:03:41.082Z,97.90
2018-09-30T10:06:09.829Z,97.80
2018-09-30T10:08:38.543Z,97.10
2018-09-30T10:11:07.272Z,97.10
2018-09-30T10:13:35.960Z,96.40
2018-09-30T10:16:04.713Z,96.80
2018-09-30T10:18:33.392Z,97.10
2018-09-30T10:21:02.400Z,96.60
2018-09-30T10:23:31.167Z,96.50
2018-09-30T10:25:59.981Z,96.80
2018-09-30T10:28:29.006Z,95.90
2018-09-30T10:30:57.623Z,96.30
2018-09-30T10:33:26.106Z,95.60
2018-09-30T10:35:54.653Z,96.50
2018-09-30T10:38:23.413Z,96.80
2018-09-30T10:40:51.886Z,96.90
2018-09-30T10:43:20.346Z,96.30
2018-09-30T10:45:48.878Z,96.30
2018-09-30T10:48:17.474Z,96.50
2018-09-30T10:50:45.830Z,96.10
2018-09-30T10:53:14.224Z,95.90
2018-09-30T10:55:42.654Z,96.00
2018-09-30T10:58:11.073Z,96.20
2018-09-30T11:00:39.505Z,96.40
2018-09-30T11:03:08.021Z,95.50
2018-09-30T11:05:36.447Z,96.60
2018-09-30T11:08:04.888Z,96.00
2018-09-30T11:10:33.334Z,95.30
2018-09-30T11:13:01.830Z,94.80
2018-09-30T11:15:30.272Z,95.00
2018-09-30T11:17:58.686Z,94.90
2018-09-30T11:20:27.136Z,94.60
2018-09-30T11:22:55.550Z,94.70
2018-09-30T11:25:23.964Z,93.80
2018-09-30T11:27:52.355Z,94.20
2018-09-30T11:30:20.825Z,93.80
2018-09-30T11:32:49.250Z,93.70
2018-09-30T11:35:17.691Z,93.60
2018-09-30T11:37:46.121Z,93.60
2018-09-30T11:40:14.534Z,93.60
2018-09-30T11:42:42.988Z,93.70
2018-09-30T11:45:13.885Z,93.80
2018-09-30T11:47:42.399Z,93.70
2018-09-30T11:50:10.844Z,93.70
2018-09-30T11:52:39.265Z,93.80
2018-09-30T11:55:07.659Z,93.50
2018-09-30T11:57:36.074Z,93.60
2018-09-30T12:00:04.607Z,93.50
2018-09-30T12:02:33.030Z,93.20
2018-09-30T12:05:01.428Z,93.50
2018-09-30T12:07:29.898Z,93.50
2018-09-30T12:09:58.383Z,93.60
2018-09-30T12:12:26.802Z,92.80
2018-09-30T12:14:55.259Z,93.20
2018-09-30T12:17:23.683Z,93.20
2018-09-30T12:19:52.106Z,93.40
2018-09-30T12:22:20.594Z,93.40
2018-09-30T12:24:48.958Z,93.30
2018-09-30T12:27:17.415Z,93.30
2018-09-30T12:29:45.824Z,93.30
2018-09-30T12:32:14.250Z,93.10
2018-09-30T12:34:42.685Z,93.20
2018-09-30T12:37:11.131Z,93.20
2018-09-30T12:39:39.574Z,92.10
2018-09-30T12:42:08.202Z,93.50
2018-09-30T12:44:36.658Z,93.80
2018-09-30T12:47:05.100Z,93.20
2018-09-30T12:49:33.494Z,93.00
2018-09-30T12:52:02.018Z,93.20
2018-09-30T12:54:30.437Z,93.00
2018-09-30T12:56:58.974Z,92.80
2018-09-30T12:59:27.354Z,92.70
2018-09-30T13:01:55.903Z,93.40
2018-09-30T13:04:24.337Z,93.40
2018-09-30T13:06:52.787Z,93.00
2018-09-30T13:09:21.213Z,93.00
2018-09-30T13:11:49.663Z,93.10
2018-09-30T13:14:18.219Z,93.10
2018-09-30T13:16:46.638Z,93.10
2018-09-30T13:19:15.043Z,93.30
2018-09-30T13:21:43.483Z,92.70
2018-09-30T13:24:12.066Z,92.60
2018-09-30T13:26:40.528Z,92.90
2018-09-30T13:29:09.255Z,94.40
2018-09-30T13:31:37.843Z,93.30
2018-09-30T13:34:06.894Z,93.00
2018-09-30T13:36:35.466Z,93.00
2018-09-30T13:39:04.928Z,92.60
2018-09-30T13:41:33.543Z,92.20
2018-09-30T13:44:02.243Z,92.40
2018-09-30T13:46:30.943Z,92.50
2018-09-30T13:48:59.490Z,92.50
2018-09-30T13:51:28.140Z,92.20
2018-09-30T13:53:56.743Z,92.20
2018-09-30T13:56:25.492Z,92.50
2018-09-30T13:58:54.075Z,92.50
2018-09-30T14:01:22.673Z,92.30
2018-09-30T14:03:51.200Z,92.00
2018-09-30T14:06:19.927Z,92.70
2018-09-30T14:08:48.499Z,92.50
2018-09-30T14:11:17.063Z,92.70
2018-09-30T14:13:45.655Z,92.30
2018-09-30T14:16:14.501Z,92.20
2018-09-30T14:18:43.287Z,91.90
2018-09-30T14:21:12.151Z,91.90
2018-09-30T14:23:40.974Z,92.10
2018-09-30T14:26:09.790Z,92.50
2018-09-30T14:28:38.699Z,92.70
2018-09-30T14:31:07.568Z,92.50
2018-09-30T14:33:36.533Z,91.70
2018-09-30T14:36:05.156Z,91.80
2018-09-30T14:38:33.798Z,91.80
2018-09-30T14:41:02.341Z,92.00
2018-09-30T14:43:31.108Z,91.50
2018-09-30T14:45:59.771Z,91.20
2018-09-30T14:48:28.302Z,91.30
2018-09-30T14:50:56.888Z,91.40
2018-09-30T14:53:25.558Z,91.20
2018-09-30T14:55:54.197Z,91.10
2018-09-30T14:58:22.788Z,90.60
2018-09-30T15:00:51.366Z,91.20
2018-09-30T15:03:20.051Z,91.10
2018-09-30T15:05:48.687Z,91.10
2018-09-30T15:08:17.797Z,90.90
2018-09-30T15:10:46.237Z,91.20
2018-09-30T15:13:14.656Z,90.60
2018-09-30T15:15:43.092Z,91.00
2018-09-30T15:18:11.524Z,90.80
2018-09-30T15:20:39.923Z,91.10
2018-09-30T15:23:08.527Z,91.20
2018-09-30T15:25:36.974Z,91.20
2018-09-30T15:28:05.411Z,91.60
2018-09-30T15:30:33.872Z,91.10
2018-09-30T15:33:02.281Z,91.40
2018-09-30T15:35:30.701Z,91.50
2018-09-30T15:37:59.166Z,90.80
2018-09-30T15:40:27.582Z,90.80
2018-09-30T15:42:56.076Z,91.00
2018-09-30T15:45:24.449Z,91.40
2018-09-30T15:47:52.880Z,91.50
2018-09-30T15:50:21.274Z,91.60
2018-09-30T15:52:49.742Z,91.70
2018-09-30T15:55:18.188Z,91.70
2018-09-30T15:57:46.590Z,91.90
2018-09-30T16:00:15.042Z,92.20
2018-09-30T16:02:43.487Z,92.20
2018-09-30T16:05:11.907Z,92.20
2018-09-30T16:07:40.339Z,92.30
2018-09-30T16:10:08.780Z,92.30
2018-09-30T16:12:37.211Z,92.50
2018-09-30T16:15:05.735Z,92.50
2018-09-30T16:17:34.209Z,92.30
2018-09-30T16:20:02.835Z,92.40
2018-09-30T16:22:31.271Z,92.40
2018-09-30T16:24:59.684Z,92.40
2018-09-30T16:27:28.086Z,92.20
2018-09-30T16:29:56.617Z,92.60
2018-09-30T16:32:25.037Z,92.20
2018-09-30T16:34:54.146Z,92.20
2018-09-30T16:37:23.005Z,92.00
2018-09-30T16:39:51.826Z,91.90
2018-09-30T16:42:20.694Z,92.30
2018-09-30T16:44:49.156Z,92.50
2018-09-30T16:47:17.540Z,92.10
2018-09-30T16:49:45.976Z,92.40
2018-09-30T16:52:14.518Z,92.40
2018-09-30T16:54:43.058Z,92.60
2018-09-30T16:57:11.605Z,93.40
2018-09-30T16:59:40.256Z,93.40
2018-09-30T17:02:09.399Z,92.80
2018-09-30T17:04:37.964Z,92.90
2018-09-30T17:07:06.582Z,92.90
2018-09-30T17:09:35.140Z,93.20
2018-09-30T17:12:03.714Z,93.70
2018-09-30T17:14:32.373Z,93.70
2018-09-30T17:17:00.972Z,94.00
2018-09-30T17:19:29.639Z,94.10
2018-09-30T17:21:58.200Z,94.20
2018-09-30T17:24:26.803Z,94.50
2018-09-30T17:26:55.376Z,94.70
2018-09-30T17:29:23.946Z,94.90
2018-09-30T17:31:52.492Z,94.70
2018-09-30T17:34:21.084Z,94.70
2018-09-30T17:36:49.622Z,95.00
2018-09-30T17:39:18.214Z,95.30
2018-09-30T17:41:46.757Z,95.50
2018-09-30T17:44:15.312Z,95.90
2018-09-30T17:46:43.815Z,96.10
2018-09-30T17:49:12.362Z,96.10
2018-09-30T17:51:40.950Z,96.30
2018-09-30T17:54:09.522Z,96.70
2018-09-30T17:56:38.069Z,96.90
2018-09-30T17:59:06.675Z,97.00
2018-09-30T18:01:35.266Z,96.90
2018-09-30T18:04:03.860Z,96.80
2018-09-30T18:06:32.426Z,96.90
2018-09-30T18:09:00.964Z,97.10
2018-09-30T18:11:29.457Z,97.00
2018-09-30T18:14:00.020Z,97.20
2018-09-30T18:16:28.849Z,97.10
2018-09-30T18:18:57.565Z,97.00
2018-09-30T18:21:27.689Z,97.00
2018-09-30T18:23:56.499Z,97.00
2018-09-30T18:26:26.338Z,96.90
2018-09-30T18:28:54.975Z,97.10
2018-09-30T18:31:23.563Z,97.10
2018-09-30T18:33:52.249Z,97.20
2018-09-30T18:36:21.018Z,97.40
2018-09-30T18:38:49.764Z,97.40
2018-09-30T18:41:18.438Z,97.00
2018-09-30T18:43:47.148Z,97.30
2018-09-30T18:46:15.936Z,97.70
2018-09-30T18:48:44.685Z,97.80
2018-09-30T18:51:13.460Z,98.00
2018-09-30T18:53:42.268Z,97.90
2018-09-30T18:56:11.047Z,98.00
2018-09-30T18:58:40.170Z,98.10
2018-09-30T19:01:08.947Z,98.00
2018-09-30T19:03:37.744Z,98.10
2018-09-30T19:06:06.558Z,98.40
2018-09-30T19:08:35.327Z,98.90
2018-09-30T19:11:04.070Z,99.20
2018-09-30T19:13:32.819Z,99.30
2018-09-30T19:16:01.758Z,99.40
2018-09-30T19:18:30.570Z,99.30
2018-09-30T19:20:59.316Z,99.30
2018-09-30T19:23:27.891Z,99.50
2018-09-30T19:25:56.383Z,99.90
2018-09-30T19:28:24.860Z,99.60
2018-09-30T19:30:53.305Z,99.60
2018-09-30T19:33:21.713Z,99.70
2018-09-30T19:35:50.150Z,99.70
2018-09-30T19:38:18.915Z,99.70
2018-09-30T19:40:47.350Z,99.60
2018-09-30T19:43:15.755Z,99.80
2018-09-30T19:45:44.268Z,99.90
2018-09-30T19:48:12.734Z,99.90
2018-09-30T19:50:41.167Z,99.90
2018-09-30T19:53:09.587Z,99.90
2018-09-30T19:55:38.039Z,99.90
2018-09-30T19:58:06.500Z,99.90
2018-09-30T20:00:34.961Z,99.90
2018-09-30T20:03:03.437Z,99.90
2018-09-30T20:05:31.895Z,99.90
2018-09-30T20:08:00.342Z,99.90
2018-09-30T20:10:28.906Z,99.90
2018-09-30T20:12:57.402Z,99.90
2018-09-30T20:15:25.857Z,99.90
2018-09-30T20:17:54.507Z,99.90
2018-09-30T20:20:23.001Z,99.90
2018-09-30T20:22:51.458Z,99.90
2018-09-30T20:25:19.913Z,99.90
2018-09-30T20:27:48.381Z,99.90
2018-09-30T20:30:16.918Z,99.90
2018-09-30T20:32:45.374Z,99.90
2018-09-30T20:35:13.850Z,99.90
2018-09-30T20:37:42.302Z,99.90
2018-09-30T20:40:10.735Z,99.90
2018-09-30T20:42:39.127Z,99.90
2018-09-30T20:45:07.539Z,99.90
2018-09-30T20:47:35.962Z,99.90
2018-09-30T20:50:04.428Z,99.90
2018-09-30T20:52:32.836Z,99.90
2018-09-30T20:55:01.356Z,99.90
2018-09-30T20:57:29.794Z,99.90
2018-09-30T20:59:58.977Z,99.90
2018-09-30T21:02:27.374Z,99.90
2018-09-30T21:04:55.950Z,99.90
2018-09-30T21:07:24.301Z,99.90
2018-09-30T21:09:52.742Z,99.90
2018-09-30T21:12:21.116Z,99.90
2018-09-30T21:14:49.543Z,99.90
2018-09-30T21:17:17.971Z,99.90
2018-09-30T21:19:46.335Z,99.90
2018-09-30T21:22:14.779Z,99.90
2018-09-30T21:24:43.258Z,99.90
2018-09-30T21:27:11.740Z,99.90
2018-09-30T21:29:40.187Z,99.90
2018-09-30T21:32:08.586Z,99.90
2018-09-30T21:34:37.022Z,99.90
2018-09-30T21:37:05.624Z,99.90
2018-09-30T21:39:34.011Z,99.90
2018-09-30T21:42:02.764Z,99.90
2018-09-30T21:44:31.178Z,99.90
2018-09-30T21:46:59.643Z,99.90
2018-09-30T21:49:28.027Z,99.90
2018-09-30T21:51:56.460Z,99.90
2018-09-30T21:54:24.860Z,99.90
2018-09-30T21:56:53.267Z,99.90
2018-09-30T21:59:21.715Z,99.90
2018-09-30T22:01:50.289Z,99.90
2018-09-30T22:04:18.567Z,99.90
2018-09-30T22:06:46.968Z,99.90
2018-09-30T22:09:15.350Z,99.90
2018-09-30T22:11:43.776Z,99.90
2018-09-30T22:14:12.250Z,99.90
2018-09-30T22:16:40.698Z,99.90
2018-09-30T22:19:09.145Z,99.90
2018-09-30T22:21:37.547Z,99.90
2018-09-30T22:24:05.960Z,99.90
2018-09-30T22:26:34.388Z,99.90
2018-09-30T22:29:02.783Z,99.90
2018-09-30T22:31:31.182Z,99.90
2018-09-30T22:33:59.595Z,99.90
2018-09-30T22:36:27.985Z,99.90
2018-09-30T22:38:56.450Z,99.90
2018-09-30T22:41:24.891Z,99.90
2018-09-30T22:43:54.217Z,99.90
2018-09-30T22:46:22.606Z,99.90
2018-09-30T22:48:51.012Z,99.90
2018-09-30T22:51:19.383Z,99.90
2018-09-30T22:53:47.804Z,99.90
2018-09-30T22:56:16.192Z,99.90
2018-09-30T22:58:44.603Z,99.90
2018-09-30T23:01:13.010Z,99.90
2018-09-30T23:03:41.766Z,99.90
2018-09-30T23:06:10.176Z,99.90
2018-09-30T23:08:38.578Z,99.90
2018-09-30T23:11:07.018Z,99.90
2018-09-30T23:13:35.589Z,99.90
2018-09-30T23:16:04.017Z,99.90
2018-09-30T23:18:32.422Z,99.90
2018-09-30T23:21:00.825Z,99.90
2018-09-30T23:23:29.223Z,99.90
2018-09-30T23:25:57.647Z,99.90
2018-09-30T23:28:26.053Z,99.90
2018-09-30T23:30:54.444Z,99.90
2018-09-30T23:33:22.865Z,99.90
2018-09-30T23:35:51.242Z,99.90
2018-09-30T23:38:19.646Z,99.90
2018-09-30T23:40:48.062Z,99.90
2018-09-30T23:43:16.544Z,99.90
2018-09-30T23:45:44.945Z,99.90
2018-09-30T23:48:13.370Z,99.90
2018-09-30T23:50:41.783Z,99.90
2018-09-30T23:53:10.190Z,99.90
2018-09-30T23:55:38.598Z,99.90
2018-09-30T23:58:11.604Z,99.90
